createdAt,value
2022-07-30T00:00:00.000Z,19.9
2022-07-30T00:15:00.000Z,19.8
2022-07-30T00:30:00.000Z,19.6
2022-07-30T00:45:00.000Z,19.52
2022-07-30T01:00:00.000Z,19.56
2022-07-30T01:15:00.000Z,19.47
2022-07-30T01:30:00.000Z,19.5
2022-07-30T01:45:00.000Z,19.34
2022-07-30T02:00:00.000Z,19.26
2022-07-30T02:15:00.000Z,19.15
2022-07-30T02:30:00.000Z,19.17
2022-07-30T02:45:00.000Z,19.16
2022-07-30T03:00:00.000Z,19.12
2022-07-30T03:15:00.000Z,19.12
2022-07-30T03:30:00.000Z,19.13
2022-07-30T03:45:00.000Z,19.15
2022-07-30T04:00:00.000Z,18.94
2022-07-30T04:15:00.000Z,18.93
2022-07-30T04:30:00.000Z,18.92
2022-07-30T04:45:00.000Z,18.93
2022-07-30T05:00:00.000Z,19.19
2022-07-30T05:15:00.000Z,19.45
2022-07-30T05:30:00.000Z,19.58
2022-07-30T05:45:00.000Z,19.45
2022-07-30T06:00:00.000Z,19.51
2022-07-30T06:15:00.000Z,19.62
2022-07-30T06:30:00.000Z,19.88
2022-07-30T06:45:00.000Z,20.29
2022-07-30T07:00:00.000Z,20.44
2022-07-30T07:15:00.000Z,20.56
2022-07-30T07:30:00.000Z,20.2
2022-07-30T07:45:00.000Z,19.38
2022-07-30T08:00:00.000Z,19.47
2022-07-30T08:15:00.000Z,19.88
2022-07-30T08:30:00.000Z,20.49
2022-07-30T08:45:00.000Z,20.87
2022-07-30T09:00:00.000Z,21.07
2022-07-30T09:15:00.000Z,21.15
2022-07-30T09:30:00.000Z,21.15
2022-07-30T09:45:00.000Z,21.42
2022-07-30T10:00:00.000Z,21.26
2022-07-30T10:30:00.000Z,25.19
2022-07-30T10:30:00.000Z,25.65
2022-07-30T10:45:00.000Z,26.16
2022-07-30T11:00:00.000Z,27.06
2022-07-30T11:15:00.000Z,27.11
2022-07-30T11:30:00.000Z,25.4
2022-07-30T11:45:00.000Z,25.4
2022-07-30T12:00:00.000Z,26.24
2022-07-30T12:15:00.000Z,26.66
2022-07-30T12:30:00.000Z,26.21
2022-07-30T12:45:00.000Z,26.31
2022-07-30T13:00:00.000Z,26.36
2022-07-30T13:15:00.000Z,26.96
2022-07-30T13:30:00.000Z,27.29
2022-07-30T13:45:00.000Z,26.62
2022-07-30T14:00:00.000Z,25.45
2022-07-30T14:15:00.000Z,24.58
2022-07-30T14:30:00.000Z,25.44
2022-07-30T14:45:00.000Z,25.85
2022-07-30T15:00:00.000Z,25.73
2022-07-30T15:15:00.000Z,24.98
2022-07-30T15:30:00.000Z,23.66
2022-07-30T15:45:00.000Z,23.32
2022-07-30T16:00:00.000Z,24.15
2022-07-30T16:15:00.000Z,25.25
2022-07-30T16:30:00.000Z,25.05
2022-07-30T16:45:00.000Z,25.37
2022-07-30T17:00:00.000Z,25.1
2022-07-30T17:15:00.000Z,24.96
2022-07-30T17:30:00.000Z,24.49
2022-07-30T17:45:00.000Z,24.01
2022-07-30T18:00:00.000Z,23.69
2022-07-30T18:15:00.000Z,23.38
2022-07-30T18:30:00.000Z,23.13
2022-07-30T18:45:00.000Z,23.12
2022-07-30T19:00:00.000Z,22.85
2022-07-30T19:15:00.000Z,21.98
2022-07-30T19:30:00.000Z,22.12
2022-07-30T19:45:00.000Z,21.77
2022-07-30T20:00:00.000Z,21.51
2022-07-30T20:15:00.000Z,21.43
2022-07-30T20:30:00.000Z,21.38
2022-07-30T20:45:00.000Z,21.13
2022-07-30T21:00:00.000Z,21.27
2022-07-30T21:15:00.000Z,21.28
2022-07-30T21:30:00.000Z,20.41
2022-07-30T21:45:00.000Z,20.06
2022-07-30T22:00:00.000Z,20.37
2022-07-30T22:15:00.000Z,20.13
2022-07-30T22:30:00.000Z,19.52
2022-07-30T22:45:00.000Z,20.03
2022-07-30T23:00:00.000Z,20.28
2022-07-30T23:15:00.000Z,19.69
2022-07-30T23:45:00.000Z,20.41
2022-07-30T23:45:00.000Z,20.24
